sensor_id;sensor_type;location;lat;lon;timestamp;pressure;altitude;pressure_sealevel;temperature;humidity
62926;BME280;55732;52.248;-0.844;2023-09-18T00:00:33;99450.80;;;17.44;98.38
62926;BME280;55732;52.248;-0.844;2023-09-18T00:03:00;99445.91;;;17.46;98.43
62926;BME280;55732;52.248;-0.844;2023-09-18T00:05:28;99440.71;;;17.47;98.57
62926;BME280;55732;52.248;-0.844;2023-09-18T00:07:53;99430.77;;;17.46;98.59
62926;BME280;55732;52.248;-0.844;2023-09-18T00:10:19;99423.30;;;17.46;98.74
62926;BME280;55732;52.248;-0.844;2023-09-18T00:12:44;99413.95;;;17.45;99.06
62926;BME280;55732;52.248;-0.844;2023-09-18T00:15:09;99409.54;;;17.44;99.21
62926;BME280;55732;52.248;-0.844;2023-09-18T00:17:36;99404.55;;;17.44;99.34
62926;BME280;55732;52.248;-0.844;2023-09-18T00:20:02;99402.63;;;17.43;99.54
62926;BME280;55732;52.248;-0.844;2023-09-18T00:22:31;99395.36;;;17.42;99.72
62926;BME280;55732;52.248;-0.844;2023-09-18T00:24:56;99391.80;;;17.43;99.88
62926;BME280;55732;52.248;-0.844;2023-09-18T00:27:21;99389.33;;;17.42;99.97
62926;BME280;55732;52.248;-0.844;2023-09-18T00:29:47;99381.66;;;17.42;100.00
62926;BME280;55732;52.248;-0.844;2023-09-18T00:32:12;99379.52;;;17.43;100.00
62926;BME280;55732;52.248;-0.844;2023-09-18T00:34:38;99376.33;;;17.43;100.00
62926;BME280;55732;52.248;-0.844;2023-09-18T00:37:06;99370.30;;;17.42;100.00
62926;BME280;55732;52.248;-0.844;2023-09-18T00:39:31;99359.10;;;17.42;100.00
62926;BME280;55732;52.248;-0.844;2023-09-18T00:41:56;99347.54;;;17.41;100.00
62926;BME280;55732;52.248;-0.844;2023-09-18T00:44:23;99339.64;;;17.39;100.00
62926;BME280;55732;52.248;-0.844;2023-09-18T00:46:49;99328.85;;;17.38;100.00
62926;BME280;55732;52.248;-0.844;2023-09-18T00:49:16;99320.59;;;17.36;100.00
62926;BME280;55732;52.248;-0.844;2023-09-18T00:51:43;99320.35;;;17.34;100.00
62926;BME280;55732;52.248;-0.844;2023-09-18T00:54:10;99326.22;;;17.34;100.00
62926;BME280;55732;52.248;-0.844;2023-09-18T00:56:36;99328.14;;;17.34;100.00
62926;BME280;55732;52.248;-0.844;2023-09-18T00:59:02;99327.73;;;17.35;100.00
62926;BME280;55732;52.248;-0.844;2023-09-18T01:01:31;99329.63;;;17.36;100.00
62926;BME280;55732;52.248;-0.844;2023-09-18T01:03:58;99318.60;;;17.37;100.00
62926;BME280;55732;52.248;-0.844;2023-09-18T01:06:26;99319.46;;;17.37;100.00
62926;BME280;55732;52.248;-0.844;2023-09-18T01:08:56;99318.17;;;17.38;100.00
62926;BME280;55732;52.248;-0.844;2023-09-18T01:14:17;99320.04;;;17.40;100.00
62926;BME280;55732;52.248;-0.844;2023-09-18T01:16:51;99313.82;;;17.40;100.00
62926;BME280;55732;52.248;-0.844;2023-09-18T01:19:40;99304.55;;;17.40;100.00
62926;BME280;55732;52.248;-0.844;2023-09-18T01:22:07;99300.23;;;17.41;100.00
62926;BME280;55732;52.248;-0.844;2023-09-18T01:24:37;99298.15;;;17.40;100.00
62926;BME280;55732;52.248;-0.844;2023-09-18T01:27:04;99297.44;;;17.40;100.00
62926;BME280;55732;52.248;-0.844;2023-09-18T01:29:30;99291.79;;;17.39;100.00
62926;BME280;55732;52.248;-0.844;2023-09-18T01:31:56;99286.80;;;17.39;100.00
62926;BME280;55732;52.248;-0.844;2023-09-18T01:34:26;99278.08;;;17.39;100.00
62926;BME280;55732;52.248;-0.844;2023-09-18T01:36:55;99271.51;;;17.39;100.00
62926;BME280;55732;52.248;-0.844;2023-09-18T01:39:20;99274.50;;;17.40;100.00
62926;BME280;55732;52.248;-0.844;2023-09-18T01:41:46;99267.88;;;17.40;100.00
62926;BME280;55732;52.248;-0.844;2023-09-18T01:44:13;99268.34;;;17.42;100.00
62926;BME280;55732;52.248;-0.844;2023-09-18T01:46:38;99266.52;;;17.43;100.00
62926;BME280;55732;52.248;-0.844;2023-09-18T01:49:05;99265.04;;;17.44;100.00
62926;BME280;55732;52.248;-0.844;2023-09-18T01:51:30;99252.67;;;17.46;100.00
62926;BME280;55732;52.248;-0.844;2023-09-18T01:53:56;99250.80;;;17.47;100.00
62926;BME280;55732;52.248;-0.844;2023-09-18T01:56:23;99246.80;;;17.49;100.00
62926;BME280;55732;52.248;-0.844;2023-09-18T01:58:49;99241.24;;;17.49;100.00
62926;BME280;55732;52.248;-0.844;2023-09-18T02:01:14;99232.13;;;17.50;100.00
62926;BME280;55732;52.248;-0.844;2023-09-18T02:03:40;99221.20;;;17.52;100.00
62926;BME280;55732;52.248;-0.844;2023-09-18T02:06:06;99216.89;;;17.52;100.00
62926;BME280;55732;52.248;-0.844;2023-09-18T02:08:31;99214.98;;;17.52;100.00
62926;BME280;55732;52.248;-0.844;2023-09-18T02:10:57;99210.20;;;17.51;100.00
62926;BME280;55732;52.248;-0.844;2023-09-18T02:13:22;99207.38;;;17.51;100.00
62926;BME280;55732;52.248;-0.844;2023-09-18T02:15:47;99203.32;;;17.50;100.00
62926;BME280;55732;52.248;-0.844;2023-09-18T02:18:13;99198.56;;;17.49;100.00
62926;BME280;55732;52.248;-0.844;2023-09-18T02:20:41;99197.54;;;17.48;100.00
62926;BME280;55732;52.248;-0.844;2023-09-18T02:23:07;99185.02;;;17.46;100.00
62926;BME280;55732;52.248;-0.844;2023-09-18T02:25:32;99173.55;;;17.44;100.00
62926;BME280;55732;52.248;-0.844;2023-09-18T02:27:58;99173.34;;;17.41;100.00
62926;BME280;55732;52.248;-0.844;2023-09-18T02:30:23;99172.23;;;17.39;100.00
62926;BME280;55732;52.248;-0.844;2023-09-18T02:32:48;99157.77;;;17.33;100.00
62926;BME280;55732;52.248;-0.844;2023-09-18T02:35:14;99159.04;;;17.36;100.00
62926;BME280;55732;52.248;-0.844;2023-09-18T02:37:39;99144.35;;;17.34;100.00
62926;BME280;55732;52.248;-0.844;2023-09-18T02:40:05;99141.86;;;17.30;100.00
62926;BME280;55732;52.248;-0.844;2023-09-18T02:42:32;99129.61;;;17.26;100.00
62926;BME280;55732;52.248;-0.844;2023-09-18T02:44:57;99118.38;;;17.23;100.00
62926;BME280;55732;52.248;-0.844;2023-09-18T02:47:23;99108.95;;;17.21;99.99
62926;BME280;55732;52.248;-0.844;2023-09-18T02:49:48;99098.94;;;17.18;99.95
62926;BME280;55732;52.248;-0.844;2023-09-18T02:52:14;99095.39;;;17.14;99.92
62926;BME280;55732;52.248;-0.844;2023-09-18T02:54:39;99095.16;;;17.12;99.73
62926;BME280;55732;52.248;-0.844;2023-09-18T02:57:05;99090.08;;;17.07;99.61
62926;BME280;55732;52.248;-0.844;2023-09-18T02:59:30;99101.80;;;17.04;99.50
62926;BME280;55732;52.248;-0.844;2023-09-18T03:01:57;99103.24;;;17.00;99.34
62926;BME280;55732;52.248;-0.844;2023-09-18T03:04:22;99105.64;;;16.95;99.27
62926;BME280;55732;52.248;-0.844;2023-09-18T03:06:48;99102.73;;;16.93;99.46
62926;BME280;55732;52.248;-0.844;2023-09-18T03:09:14;99101.41;;;16.90;99.56
62926;BME280;55732;52.248;-0.844;2023-09-18T03:11:41;99106.16;;;16.88;99.64
62926;BME280;55732;52.248;-0.844;2023-09-18T03:14:08;99113.40;;;16.86;99.77
62926;BME280;55732;52.248;-0.844;2023-09-18T03:16:34;99121.70;;;16.83;99.51
62926;BME280;55732;52.248;-0.844;2023-09-18T03:18:59;99123.54;;;16.82;99.53
62926;BME280;55732;52.248;-0.844;2023-09-18T03:21:25;99115.14;;;16.80;99.49
62926;BME280;55732;52.248;-0.844;2023-09-18T03:23:50;99115.38;;;16.78;99.47
62926;BME280;55732;52.248;-0.844;2023-09-18T03:26:16;99116.88;;;16.77;99.41
62926;BME280;55732;52.248;-0.844;2023-09-18T03:28:41;99121.23;;;16.75;99.44
62926;BME280;55732;52.248;-0.844;2023-09-18T03:31:07;99116.02;;;16.73;99.30
62926;BME280;55732;52.248;-0.844;2023-09-18T03:33:32;99111.84;;;16.71;99.19
62926;BME280;55732;52.248;-0.844;2023-09-18T03:35:57;99113.30;;;16.70;99.17
62926;BME280;55732;52.248;-0.844;2023-09-18T03:38:24;99120.66;;;16.69;99.08
62926;BME280;55732;52.248;-0.844;2023-09-18T03:40:50;99133.21;;;16.67;98.89
62926;BME280;55732;52.248;-0.844;2023-09-18T03:43:16;99126.61;;;16.64;98.97
62926;BME280;55732;52.248;-0.844;2023-09-18T03:45:41;99108.19;;;16.62;99.07
62926;BME280;55732;52.248;-0.844;2023-09-18T03:48:07;99100.14;;;16.59;98.76
62926;BME280;55732;52.248;-0.844;2023-09-18T03:50:32;99094.61;;;16.55;98.52
62926;BME280;55732;52.248;-0.844;2023-09-18T03:52:58;99107.05;;;16.52;98.30
62926;BME280;55732;52.248;-0.844;2023-09-18T03:55:23;99115.56;;;16.49;98.29
62926;BME280;55732;52.248;-0.844;2023-09-18T03:57:49;99118.57;;;16.45;98.30
62926;BME280;55732;52.248;-0.844;2023-09-18T04:00:15;99124.91;;;16.43;98.13
62926;BME280;55732;52.248;-0.844;2023-09-18T04:02:41;99128.20;;;16.41;98.07
62926;BME280;55732;52.248;-0.844;2023-09-18T04:05:07;99129.23;;;16.38;98.14
62926;BME280;55732;52.248;-0.844;2023-09-18T04:07:32;99122.69;;;16.38;98.43
62926;BME280;55732;52.248;-0.844;2023-09-18T04:09:57;99119.73;;;16.33;98.43
62926;BME280;55732;52.248;-0.844;2023-09-18T04:12:23;99122.10;;;16.35;98.58
62926;BME280;55732;52.248;-0.844;2023-09-18T04:14:49;99121.27;;;16.34;98.73
62926;BME280;55732;52.248;-0.844;2023-09-18T04:17:15;99117.30;;;16.31;98.67
62926;BME280;55732;52.248;-0.844;2023-09-18T04:19:40;99121.98;;;16.30;98.75
62926;BME280;55732;52.248;-0.844;2023-09-18T04:22:06;99125.36;;;16.30;98.85
62926;BME280;55732;52.248;-0.844;2023-09-18T04:24:31;99130.77;;;16.28;98.58
62926;BME280;55732;52.248;-0.844;2023-09-18T04:26:57;99124.33;;;16.26;98.38
62926;BME280;55732;52.248;-0.844;2023-09-18T04:29:22;99110.65;;;16.26;98.45
62926;BME280;55732;52.248;-0.844;2023-09-18T04:31:48;99090.86;;;16.23;98.26
62926;BME280;55732;52.248;-0.844;2023-09-18T04:34:14;99085.23;;;16.22;98.35
62926;BME280;55732;52.248;-0.844;2023-09-18T04:36:39;99069.86;;;16.21;98.22
62926;BME280;55732;52.248;-0.844;2023-09-18T04:39:05;99073.31;;;16.19;98.28
62926;BME280;55732;52.248;-0.844;2023-09-18T04:41:32;99076.56;;;16.18;98.24
62926;BME280;55732;52.248;-0.844;2023-09-18T04:43:57;99081.45;;;16.16;98.18
62926;BME280;55732;52.248;-0.844;2023-09-18T04:46:23;99085.64;;;16.14;98.29
62926;BME280;55732;52.248;-0.844;2023-09-18T04:48:50;99092.60;;;16.13;98.34
62926;BME280;55732;52.248;-0.844;2023-09-18T04:51:16;99080.42;;;16.08;98.35
62926;BME280;55732;52.248;-0.844;2023-09-18T04:53:41;99076.95;;;16.10;98.43
62926;BME280;55732;52.248;-0.844;2023-09-18T04:56:08;99076.59;;;16.10;98.56
62926;BME280;55732;52.248;-0.844;2023-09-18T04:58:35;99076.55;;;16.07;98.76
62926;BME280;55732;52.248;-0.844;2023-09-18T05:01:02;99080.60;;;16.08;98.73
62926;BME280;55732;52.248;-0.844;2023-09-18T05:03:32;99086.15;;;16.07;98.66
62926;BME280;55732;52.248;-0.844;2023-09-18T05:05:59;99083.70;;;16.06;98.61
62926;BME280;55732;52.248;-0.844;2023-09-18T05:08:24;99081.40;;;16.06;98.58
62926;BME280;55732;52.248;-0.844;2023-09-18T05:10:50;99083.23;;;16.05;98.44
62926;BME280;55732;52.248;-0.844;2023-09-18T05:13:15;99081.16;;;16.04;98.44
62926;BME280;55732;52.248;-0.844;2023-09-18T05:15:41;99083.70;;;16.03;98.37
62926;BME280;55732;52.248;-0.844;2023-09-18T05:18:06;99083.59;;;16.01;98.15
62926;BME280;55732;52.248;-0.844;2023-09-18T05:20:32;99085.65;;;15.99;97.76
62926;BME280;55732;52.248;-0.844;2023-09-18T05:22:58;99076.09;;;15.91;97.50
62926;BME280;55732;52.248;-0.844;2023-09-18T05:25:26;99082.74;;;15.89;97.41
62926;BME280;55732;52.248;-0.844;2023-09-18T05:27:53;99087.51;;;15.86;97.23
62926;BME280;55732;52.248;-0.844;2023-09-18T05:30:33;99094.11;;;15.89;97.38
62926;BME280;55732;52.248;-0.844;2023-09-18T05:33:02;99087.13;;;15.86;97.31
62926;BME280;55732;52.248;-0.844;2023-09-18T05:35:32;99088.94;;;15.81;96.97
62926;BME280;55732;52.248;-0.844;2023-09-18T05:37:58;99084.69;;;15.78;96.85
62926;BME280;55732;52.248;-0.844;2023-09-18T05:40:25;99088.35;;;15.76;96.88
62926;BME280;55732;52.248;-0.844;2023-09-18T05:42:54;99089.16;;;15.73;96.83
62926;BME280;55732;52.248;-0.844;2023-09-18T05:45:20;99087.83;;;15.71;96.68
62926;BME280;55732;52.248;-0.844;2023-09-18T05:47:47;99082.09;;;15.69;96.72
62926;BME280;55732;52.248;-0.844;2023-09-18T05:50:13;99086.56;;;15.68;96.71
62926;BME280;55732;52.248;-0.844;2023-09-18T05:52:43;99088.71;;;15.68;96.55
62926;BME280;55732;52.248;-0.844;2023-09-18T05:55:09;99090.09;;;15.69;96.31
62926;BME280;55732;52.248;-0.844;2023-09-18T05:57:35;99090.00;;;15.70;96.28
62926;BME280;55732;52.248;-0.844;2023-09-18T06:00:01;99088.54;;;15.71;95.97
62926;BME280;55732;52.248;-0.844;2023-09-18T06:02:28;99091.09;;;15.73;95.78
62926;BME280;55732;52.248;-0.844;2023-09-18T06:05:03;99090.92;;;15.73;95.79
62926;BME280;55732;52.248;-0.844;2023-09-18T06:07:28;99086.19;;;15.72;95.61
62926;BME280;55732;52.248;-0.844;2023-09-18T06:09:56;99088.14;;;15.72;95.58
62926;BME280;55732;52.248;-0.844;2023-09-18T06:12:22;99086.56;;;15.83;95.65
62926;BME280;55732;52.248;-0.844;2023-09-18T06:14:49;99085.41;;;16.59;94.44
62926;BME280;55732;52.248;-0.844;2023-09-18T06:17:15;99084.94;;;17.17;92.64
62926;BME280;55732;52.248;-0.844;2023-09-18T06:19:42;99085.25;;;18.23;90.18
62926;BME280;55732;52.248;-0.844;2023-09-18T06:22:07;99088.29;;;19.00;87.46
62926;BME280;55732;52.248;-0.844;2023-09-18T06:24:34;99086.50;;;19.87;84.52
62926;BME280;55732;52.248;-0.844;2023-09-18T06:26:59;99083.16;;;20.90;81.12
62926;BME280;55732;52.248;-0.844;2023-09-18T06:29:25;99090.08;;;21.74;78.61
62926;BME280;55732;52.248;-0.844;2023-09-18T06:31:50;99097.73;;;22.81;75.73
62926;BME280;55732;52.248;-0.844;2023-09-18T06:34:16;99090.02;;;23.21;73.58
62926;BME280;55732;52.248;-0.844;2023-09-18T06:36:42;99103.75;;;23.43;72.21
62926;BME280;55732;52.248;-0.844;2023-09-18T06:39:07;99107.70;;;23.45;70.74
62926;BME280;55732;52.248;-0.844;2023-09-18T06:41:33;99104.45;;;23.86;69.50
62926;BME280;55732;52.248;-0.844;2023-09-18T06:43:59;99105.43;;;24.30;68.23
62926;BME280;55732;52.248;-0.844;2023-09-18T06:46:28;99107.94;;;24.35;66.99
62926;BME280;55732;52.248;-0.844;2023-09-18T06:48:54;99103.10;;;24.12;66.92
62926;BME280;55732;52.248;-0.844;2023-09-18T06:51:19;99107.08;;;24.41;66.52
62926;BME280;55732;52.248;-0.844;2023-09-18T06:53:45;99109.75;;;24.89;64.96
62926;BME280;55732;52.248;-0.844;2023-09-18T06:56:10;99114.02;;;24.46;64.76
62926;BME280;55732;52.248;-0.844;2023-09-18T06:58:38;99114.58;;;23.74;65.56
62926;BME280;55732;52.248;-0.844;2023-09-18T07:01:04;99116.00;;;23.05;66.25
62926;BME280;55732;52.248;-0.844;2023-09-18T07:03:32;99113.15;;;22.40;67.40
62926;BME280;55732;52.248;-0.844;2023-09-18T07:06:00;99109.54;;;21.73;68.32
62926;BME280;55732;52.248;-0.844;2023-09-18T07:08:25;99109.53;;;21.13;69.70
62926;BME280;55732;52.248;-0.844;2023-09-18T07:10:51;99103.68;;;20.64;70.87
62926;BME280;55732;52.248;-0.844;2023-09-18T07:13:16;99101.00;;;20.23;71.77
62926;BME280;55732;52.248;-0.844;2023-09-18T07:15:41;99101.60;;;20.03;72.74
62926;BME280;55732;52.248;-0.844;2023-09-18T07:18:07;99096.61;;;20.05;73.26
62926;BME280;55732;52.248;-0.844;2023-09-18T07:20:34;99101.25;;;19.74;73.87
62926;BME280;55732;52.248;-0.844;2023-09-18T07:23:01;99103.19;;;19.42;74.93
62926;BME280;55732;52.248;-0.844;2023-09-18T07:25:26;99100.56;;;19.15;75.70
62926;BME280;55732;52.248;-0.844;2023-09-18T07:27:52;99099.42;;;18.90;76.64
62926;BME280;55732;52.248;-0.844;2023-09-18T07:30:17;99105.19;;;18.73;77.36
62926;BME280;55732;52.248;-0.844;2023-09-18T07:32:45;99105.86;;;18.58;77.99
62926;BME280;55732;52.248;-0.844;2023-09-18T07:35:11;99104.64;;;18.46;78.60
62926;BME280;55732;52.248;-0.844;2023-09-18T07:37:38;99100.63;;;18.35;79.26
62926;BME280;55732;52.248;-0.844;2023-09-18T07:40:05;99099.77;;;18.30;79.64
62926;BME280;55732;52.248;-0.844;2023-09-18T07:42:31;99101.52;;;18.56;79.46
62926;BME280;55732;52.248;-0.844;2023-09-18T07:44:57;99093.98;;;19.70;77.65
62926;BME280;55732;52.248;-0.844;2023-09-18T07:47:23;99086.73;;;21.40;74.18
62926;BME280;55732;52.248;-0.844;2023-09-18T07:49:48;99079.05;;;22.95;70.43
62926;BME280;55732;52.248;-0.844;2023-09-18T07:52:14;99066.19;;;23.84;68.22
62926;BME280;55732;52.248;-0.844;2023-09-18T07:54:40;99076.66;;;24.14;67.01
62926;BME280;55732;52.248;-0.844;2023-09-18T07:57:06;99074.61;;;24.46;66.37
62926;BME280;55732;52.248;-0.844;2023-09-18T07:59:35;99076.34;;;25.05;64.30
62926;BME280;55732;52.248;-0.844;2023-09-18T08:02:00;99079.04;;;25.96;62.22
62926;BME280;55732;52.248;-0.844;2023-09-18T08:04:25;99075.31;;;27.88;58.95
62926;BME280;55732;52.248;-0.844;2023-09-18T08:06:51;99072.14;;;29.36;55.08
62926;BME280;55732;52.248;-0.844;2023-09-18T08:09:17;99075.63;;;29.16;54.92
62926;BME280;55732;52.248;-0.844;2023-09-18T08:11:42;99083.75;;;28.35;55.57
62926;BME280;55732;52.248;-0.844;2023-09-18T08:14:11;99080.31;;;27.66;56.16
62926;BME280;55732;52.248;-0.844;2023-09-18T08:16:39;99076.80;;;27.54;56.17
62926;BME280;55732;52.248;-0.844;2023-09-18T08:19:04;99075.23;;;27.55;55.57
62926;BME280;55732;52.248;-0.844;2023-09-18T08:21:30;99072.35;;;27.00;55.57
62926;BME280;55732;52.248;-0.844;2023-09-18T08:23:55;99079.88;;;26.53;56.45
62926;BME280;55732;52.248;-0.844;2023-09-18T08:26:21;99084.73;;;26.23;57.18
62926;BME280;55732;52.248;-0.844;2023-09-18T08:28:47;99078.14;;;26.35;56.90
62926;BME280;55732;52.248;-0.844;2023-09-18T08:31:13;99071.84;;;26.56;56.07
62926;BME280;55732;52.248;-0.844;2023-09-18T08:33:49;99074.81;;;26.81;55.57
62926;BME280;55732;52.248;-0.844;2023-09-18T08:36:15;99073.61;;;27.74;54.26
62926;BME280;55732;52.248;-0.844;2023-09-18T08:38:45;99066.67;;;28.38;52.93
62926;BME280;55732;52.248;-0.844;2023-09-18T08:41:13;99057.41;;;28.83;51.64
62926;BME280;55732;52.248;-0.844;2023-09-18T08:43:41;99058.70;;;30.28;49.05
62926;BME280;55732;52.248;-0.844;2023-09-18T08:46:08;99053.48;;;31.95;46.06
62926;BME280;55732;52.248;-0.844;2023-09-18T08:48:33;99047.73;;;33.37;43.78
62926;BME280;55732;52.248;-0.844;2023-09-18T08:51:04;99042.48;;;34.55;41.81
62926;BME280;55732;52.248;-0.844;2023-09-18T08:53:34;99040.45;;;35.59;39.16
62926;BME280;55732;52.248;-0.844;2023-09-18T08:56:00;99038.92;;;36.34;37.37
62926;BME280;55732;52.248;-0.844;2023-09-18T08:58:33;99038.12;;;36.99;36.23
62926;BME280;55732;52.248;-0.844;2023-09-18T09:01:01;99035.31;;;37.59;34.98
62926;BME280;55732;52.248;-0.844;2023-09-18T09:03:29;99035.91;;;38.16;34.30
62926;BME280;55732;52.248;-0.844;2023-09-18T09:05:55;99034.28;;;38.67;33.13
62926;BME280;55732;52.248;-0.844;2023-09-18T09:08:21;99028.91;;;39.11;32.64
62926;BME280;55732;52.248;-0.844;2023-09-18T09:10:46;99024.67;;;39.60;32.39
62926;BME280;55732;52.248;-0.844;2023-09-18T09:13:13;99023.98;;;39.96;31.06
62926;BME280;55732;52.248;-0.844;2023-09-18T09:15:46;99022.34;;;40.22;30.37
62926;BME280;55732;52.248;-0.844;2023-09-18T09:18:14;99021.89;;;40.39;29.81
62926;BME280;55732;52.248;-0.844;2023-09-18T09:20:58;99026.33;;;40.53;29.03
62926;BME280;55732;52.248;-0.844;2023-09-18T09:23:30;99020.88;;;40.37;28.90
62926;BME280;55732;52.248;-0.844;2023-09-18T09:26:14;99017.79;;;40.13;29.24
62926;BME280;55732;52.248;-0.844;2023-09-18T09:28:40;99021.36;;;40.14;29.04
62926;BME280;55732;52.248;-0.844;2023-09-18T09:31:08;99019.80;;;39.05;29.55
62926;BME280;55732;52.248;-0.844;2023-09-18T09:33:34;99016.23;;;37.01;30.59
62926;BME280;55732;52.248;-0.844;2023-09-18T09:35:59;99015.20;;;34.55;33.42
62926;BME280;55732;52.248;-0.844;2023-09-18T09:38:29;99013.79;;;33.79;34.36
62926;BME280;55732;52.248;-0.844;2023-09-18T09:40:59;99007.77;;;34.42;34.13
62926;BME280;55732;52.248;-0.844;2023-09-18T09:43:25;99003.33;;;34.75;34.05
62926;BME280;55732;52.248;-0.844;2023-09-18T09:45:57;98990.07;;;35.52;32.95
62926;BME280;55732;52.248;-0.844;2023-09-18T09:48:23;98979.23;;;35.20;33.54
62926;BME280;55732;52.248;-0.844;2023-09-18T09:50:50;98980.99;;;35.60;32.95
62926;BME280;55732;52.248;-0.844;2023-09-18T09:53:17;98978.67;;;35.71;32.36
62926;BME280;55732;52.248;-0.844;2023-09-18T09:55:43;98976.41;;;35.99;31.49
62926;BME280;55732;52.248;-0.844;2023-09-18T09:58:10;98976.69;;;35.93;31.84
62926;BME280;55732;52.248;-0.844;2023-09-18T10:00:51;98980.95;;;34.87;33.08
62926;BME280;55732;52.248;-0.844;2023-09-18T10:03:20;98978.60;;;34.38;33.28
62926;BME280;55732;52.248;-0.844;2023-09-18T10:05:49;98978.98;;;32.81;34.89
62926;BME280;55732;52.248;-0.844;2023-09-18T10:08:23;98975.71;;;32.81;35.09
62926;BME280;55732;52.248;-0.844;2023-09-18T10:10:54;98974.87;;;32.97;35.31
62926;BME280;55732;52.248;-0.844;2023-09-18T10:13:32;98970.65;;;33.60;34.50
62926;BME280;55732;52.248;-0.844;2023-09-18T10:16:01;98968.55;;;34.17;34.04
62926;BME280;55732;52.248;-0.844;2023-09-18T10:18:50;98968.94;;;33.59;34.68
62926;BME280;55732;52.248;-0.844;2023-09-18T10:24:21;98961.39;;;31.33;37.02
62926;BME280;55732;52.248;-0.844;2023-09-18T10:26:59;98960.80;;;30.18;38.23
62926;BME280;55732;52.248;-0.844;2023-09-18T10:29:49;98958.11;;;29.23;40.26
62926;BME280;55732;52.248;-0.844;2023-09-18T10:32:14;98952.42;;;28.61;41.53
62926;BME280;55732;52.248;-0.844;2023-09-18T10:34:43;98945.98;;;28.35;41.85
62926;BME280;55732;52.248;-0.844;2023-09-18T10:37:10;98941.11;;;28.28;41.86
62926;BME280;55732;52.248;-0.844;2023-09-18T10:39:38;98940.17;;;27.85;42.45
62926;BME280;55732;52.248;-0.844;2023-09-18T10:42:07;98947.20;;;27.18;43.60
62926;BME280;55732;52.248;-0.844;2023-09-18T10:44:33;98947.56;;;26.41;45.05
62926;BME280;55732;52.248;-0.844;2023-09-18T10:47:00;98951.61;;;25.72;46.21
62926;BME280;55732;52.248;-0.844;2023-09-18T10:49:26;98943.58;;;24.99;47.47
62926;BME280;55732;52.248;-0.844;2023-09-18T10:51:54;98943.63;;;24.33;48.53
62926;BME280;55732;52.248;-0.844;2023-09-18T10:54:22;98946.16;;;23.87;50.01
62926;BME280;55732;52.248;-0.844;2023-09-18T10:56:48;98942.77;;;23.52;51.36
62926;BME280;55732;52.248;-0.844;2023-09-18T10:59:15;98941.02;;;23.27;51.79
62926;BME280;55732;52.248;-0.844;2023-09-18T11:01:44;98943.77;;;23.01;52.40
62926;BME280;55732;52.248;-0.844;2023-09-18T11:04:11;98942.48;;;22.85;53.37
62926;BME280;55732;52.248;-0.844;2023-09-18T11:09:44;98938.42;;;22.54;54.55
62926;BME280;55732;52.248;-0.844;2023-09-18T11:12:11;98937.70;;;22.33;55.05
62926;BME280;55732;52.248;-0.844;2023-09-18T11:14:56;98939.36;;;22.08;55.61
62926;BME280;55732;52.248;-0.844;2023-09-18T11:17:32;98933.42;;;21.75;56.68
62926;BME280;55732;52.248;-0.844;2023-09-18T11:20:17;98943.02;;;21.49;57.35
62926;BME280;55732;52.248;-0.844;2023-09-18T11:22:57;98942.30;;;21.21;58.41
62926;BME280;55732;52.248;-0.844;2023-09-18T11:25:36;98936.84;;;20.97;58.92
62926;BME280;55732;52.248;-0.844;2023-09-18T11:28:04;98938.95;;;20.77;59.94
62926;BME280;55732;52.248;-0.844;2023-09-18T11:30:36;98944.84;;;20.60;60.48
62926;BME280;55732;52.248;-0.844;2023-09-18T11:33:03;98946.56;;;20.42;61.86
62926;BME280;55732;52.248;-0.844;2023-09-18T11:35:31;98941.05;;;20.20;63.37
62926;BME280;55732;52.248;-0.844;2023-09-18T11:38:08;98943.46;;;20.05;64.63
62926;BME280;55732;52.248;-0.844;2023-09-18T11:40:35;98943.30;;;19.92;65.55
62926;BME280;55732;52.248;-0.844;2023-09-18T11:43:20;98938.89;;;19.83;66.61
62926;BME280;55732;52.248;-0.844;2023-09-18T11:45:56;98937.97;;;19.75;67.09
62926;BME280;55732;52.248;-0.844;2023-09-18T11:48:26;98937.57;;;19.65;67.82
62926;BME280;55732;52.248;-0.844;2023-09-18T11:50:57;98937.17;;;19.60;68.54
62926;BME280;55732;52.248;-0.844;2023-09-18T11:53:26;98939.57;;;19.56;69.28
62926;BME280;55732;52.248;-0.844;2023-09-18T11:55:53;98945.65;;;19.50;70.00
62926;BME280;55732;52.248;-0.844;2023-09-18T11:58:19;98942.34;;;19.43;70.32
62926;BME280;55732;52.248;-0.844;2023-09-18T12:00:49;98941.36;;;19.38;70.59
62926;BME280;55732;52.248;-0.844;2023-09-18T12:03:21;98943.29;;;19.34;70.58
62926;BME280;55732;52.248;-0.844;2023-09-18T12:06:01;98943.26;;;19.28;71.14
62926;BME280;55732;52.248;-0.844;2023-09-18T12:08:31;98940.88;;;19.24;71.51
62926;BME280;55732;52.248;-0.844;2023-09-18T12:10:57;98943.48;;;19.14;71.08
62926;BME280;55732;52.248;-0.844;2023-09-18T12:13:27;98941.05;;;19.04;71.34
62926;BME280;55732;52.248;-0.844;2023-09-18T12:15:57;98942.59;;;18.99;71.69
62926;BME280;55732;52.248;-0.844;2023-09-18T12:18:24;98944.15;;;18.97;71.85
62926;BME280;55732;52.248;-0.844;2023-09-18T12:20:50;98941.95;;;18.95;71.71
62926;BME280;55732;52.248;-0.844;2023-09-18T12:23:17;98941.31;;;19.00;71.63
62926;BME280;55732;52.248;-0.844;2023-09-18T12:25:50;98943.48;;;19.11;71.46
62926;BME280;55732;52.248;-0.844;2023-09-18T12:28:17;98937.30;;;19.32;71.87
62926;BME280;55732;52.248;-0.844;2023-09-18T12:30:43;98937.92;;;19.59;71.38
62926;BME280;55732;52.248;-0.844;2023-09-18T12:33:12;98940.21;;;19.76;70.92
62926;BME280;55732;52.248;-0.844;2023-09-18T12:35:40;98946.89;;;19.86;70.52
62926;BME280;55732;52.248;-0.844;2023-09-18T12:38:17;98945.87;;;20.01;70.17
62926;BME280;55732;52.248;-0.844;2023-09-18T12:40:48;98947.60;;;20.18;69.32
62926;BME280;55732;52.248;-0.844;2023-09-18T12:43:14;98946.67;;;20.30;68.74
62926;BME280;55732;52.248;-0.844;2023-09-18T12:45:43;98948.70;;;20.34;68.02
62926;BME280;55732;52.248;-0.844;2023-09-18T12:48:11;98949.77;;;20.42;67.61
62926;BME280;55732;52.248;-0.844;2023-09-18T12:50:37;98952.65;;;20.52;67.08
62926;BME280;55732;52.248;-0.844;2023-09-18T12:53:22;98957.77;;;20.56;66.79
62926;BME280;55732;52.248;-0.844;2023-09-18T12:55:48;98954.11;;;20.60;66.39
62926;BME280;55732;52.248;-0.844;2023-09-18T12:58:18;98960.63;;;20.66;66.36